Time;durP1;ratioP1;P1;durP2;ratioP2;P2;SDS_P1;SDS_P2;PMS_P1;PMS_P2;Temp;Humidity;BMP_temperature;BMP_pressure;BME280_temperature;BME280_humidity;BME280_pressure;Samples;Min_cycle;Max_cycle;Signal;HPM_P1;HPM_P2
2021/09/19 00:01:18;;;;;;;25.60;17.60;;;;;;;26.48;44.43;100359.53;4409455;32;20083;-69
2021/09/19 00:03:44;;;;;;;30.52;18.37;;;;;;;26.66;44.31;100355.75;4412529;32;20030;-69
2021/09/19 00:06:10;;;;;;;28.95;19.17;;;;;;;26.55;44.53;100365.41;4411991;32;20091;-69
2021/09/19 00:08:36;;;;;;;30.77;20.00;;;;;;;26.57;44.49;100356.94;4408748;32;20060;-69
2021/09/19 00:11:02;;;;;;;33.88;19.73;;;;;;;26.50;44.83;100365.50;4411729;32;20434;-69
2021/09/19 00:13:27;;;;;;;36.67;20.33;;;;;;;26.47;45.02;100358.75;4413084;32;20056;-69
2021/09/19 00:15:53;;;;;;;30.27;21.12;;;;;;;26.50;45.04;100354.75;4413471;32;20057;-69
2021/09/19 00:18:19;;;;;;;31.52;20.05;;;;;;;26.38;45.17;100352.69;4412986;32;20109;-69
2021/09/19 00:20:46;;;;;;;31.23;20.20;;;;;;;26.51;45.05;100353.41;4411330;32;20026;-69
2021/09/19 00:23:12;;;;;;;33.50;20.95;;;;;;;26.73;44.64;100355.06;4411134;32;20102;-69
2021/09/19 00:25:38;;;;;;;28.45;20.55;;;;;;;26.66;44.71;100356.50;4410569;32;20065;-69
2021/09/19 00:28:05;;;;;;;31.02;19.30;;;;;;;26.70;44.74;100345.41;4411028;32;20501;-69
2021/09/19 00:30:32;;;;;;;32.38;20.48;;;;;;;26.71;44.61;100344.06;4412020;32;20128;-69
2021/09/19 00:32:59;;;;;;;33.53;20.23;;;;;;;26.56;44.82;100343.09;4412531;32;20076;-69
2021/09/19 00:35:26;;;;;;;31.48;20.00;;;;;;;26.77;44.40;100347.59;4413201;32;20404;-69
2021/09/19 00:37:52;;;;;;;33.53;21.20;;;;;;;26.77;44.47;100343.94;4413592;32;20081;-69
2021/09/19 00:40:19;;;;;;;30.62;18.80;;;;;;;26.57;44.93;100350.44;4409877;32;20074;-69
2021/09/19 00:42:45;;;;;;;33.35;21.08;;;;;;;26.41;45.13;100346.56;4412054;32;20482;-69
2021/09/19 00:45:14;;;;;;;27.48;18.80;;;;;;;26.44;45.04;100348.34;4413177;32;20105;-69
2021/09/19 00:47:41;;;;;;;29.63;20.12;;;;;;;26.62;44.74;100343.75;4412522;32;20085;-69
2021/09/19 00:50:11;;;;;;;31.00;19.70;;;;;;;26.64;44.41;100344.00;4410686;32;20103;-69
2021/09/19 00:52:40;;;;;;;27.10;19.50;;;;;;;26.76;44.33;100348.16;4412272;32;20093;-69
2021/09/19 00:55:08;;;;;;;30.60;19.15;;;;;;;26.75;44.60;100341.59;4413008;32;20029;-68
2021/09/19 00:57:40;;;;;;;32.42;19.87;;;;;;;26.62;44.83;100344.53;4411289;32;20577;-68
2021/09/19 01:00:07;;;;;;;30.88;19.62;;;;;;;26.83;44.32;100350.34;4409810;32;20104;-68
2021/09/19 01:02:34;;;;;;;30.10;18.92;;;;;;;26.71;44.51;100344.06;4412712;32;20512;-68
2021/09/19 01:05:00;;;;;;;29.23;19.87;;;;;;;26.71;44.51;100338.31;4412185;32;20073;-68
2021/09/19 01:07:26;;;;;;;30.70;20.52;;;;;;;26.63;44.64;100348.97;4409960;32;20079;-68
2021/09/19 01:09:52;;;;;;;27.27;19.27;;;;;;;26.60;44.78;100347.19;4411533;32;20053;-68
2021/09/19 01:29:56;;;;;;;27.45;17.17;;;;;;;26.88;44.02;100343.69;4411549;32;20109;-68
2021/09/19 01:32:25;;;;;;;30.92;18.77;;;;;;;26.68;44.31;100344.41;4410461;32;20093;-68
2021/09/19 01:34:52;;;;;;;31.75;19.17;;;;;;;26.58;44.51;100346.97;4410008;32;20273;-68
2021/09/19 01:37:19;;;;;;;27.30;18.20;;;;;;;26.56;44.52;100338.09;4410493;32;20465;-68
2021/09/19 01:39:46;;;;;;;27.95;19.23;;;;;;;26.37;45.21;100343.25;4410186;32;20471;-68
2021/09/19 01:42:13;;;;;;;29.37;18.40;;;;;;;26.48;44.84;100337.22;4412855;32;20043;-68
2021/09/19 01:44:39;;;;;;;28.38;18.52;;;;;;;26.46;44.78;100339.13;4410279;32;20462;-68
2021/09/19 01:47:06;;;;;;;26.40;17.58;;;;;;;26.51;44.81;100332.47;4412310;32;20030;-68
2021/09/19 01:49:32;;;;;;;27.13;18.45;;;;;;;26.48;44.78;100333.56;4412416;32;20111;-68
2021/09/19 01:51:58;;;;;;;30.85;19.35;;;;;;;26.40;44.78;100339.25;4412139;32;20038;-68
2021/09/19 01:54:24;;;;;;;29.83;17.65;;;;;;;26.31;44.93;100325.28;4411747;32;20398;-68
2021/09/19 01:56:51;;;;;;;28.12;17.10;;;;;;;26.37;44.70;100325.16;4409083;32;20030;-68
2021/09/19 01:59:17;;;;;;;23.23;16.05;;;;;;;26.13;45.25;100323.31;4408835;32;20037;-68
2021/09/19 02:01:42;;;;;;;24.75;16.65;;;;;;;26.04;45.08;100320.88;4409699;32;20430;-68
2021/09/19 02:04:09;;;;;;;26.87;17.50;;;;;;;26.10;45.02;100317.88;4414049;32;20416;-68
2021/09/19 02:06:35;;;;;;;25.67;15.90;;;;;;;26.24;44.66;100314.44;4410827;32;20448;-68
2021/09/19 02:09:00;;;;;;;24.37;16.05;;;;;;;26.22;44.57;100317.09;4412076;32;20049;-68
2021/09/19 02:11:27;;;;;;;23.40;15.98;;;;;;;26.08;44.89;100317.69;4412600;32;20554;-68
2021/09/19 02:13:53;;;;;;;21.70;15.52;;;;;;;26.17;44.80;100323.00;4415119;32;20090;-68
2021/09/19 02:16:22;;;;;;;23.48;15.85;;;;;;;26.07;44.86;100325.53;4413392;32;20120;-68
2021/09/19 02:18:49;;;;;;;22.60;16.05;;;;;;;26.31;44.44;100325.28;4413919;32;20446;-68
2021/09/19 02:21:16;;;;;;;24.83;16.10;;;;;;;26.26;44.53;100323.28;4412518;32;20078;-68
2021/09/19 02:23:41;;;;;;;23.67;14.73;;;;;;;26.31;44.34;100328.16;4409522;32;20126;-69
2021/09/19 02:26:07;;;;;;;18.27;13.73;;;;;;;26.21;44.34;100327.09;4414649;32;20042;-68
2021/09/19 02:28:34;;;;;;;17.60;13.18;;;;;;;26.14;44.38;100327.00;4411385;32;20076;-68
2021/09/19 02:31:00;;;;;;;20.05;12.80;;;;;;;26.10;44.00;100333.09;4411799;32;20512;-68
2021/09/19 02:33:26;;;;;;;20.45;14.45;;;;;;;25.93;44.31;100328.97;4412016;32;20073;-68
2021/09/19 02:35:52;;;;;;;19.15;13.52;;;;;;;25.73;44.61;100327.53;4412222;32;20065;-68
2021/09/19 02:38:18;;;;;;;22.13;14.48;;;;;;;25.67;44.88;100331.84;4413914;32;20034;-68
2021/09/19 02:40:44;;;;;;;19.27;13.93;;;;;;;25.48;45.19;100325.37;4411569;32;20055;-68
2021/09/19 02:43:10;;;;;;;21.80;13.20;;;;;;;25.63;44.93;100322.75;4412703;32;20126;-68
2021/09/19 02:45:36;;;;;;;21.73;14.45;;;;;;;25.56;45.08;100329.19;4413588;32;20089;-68
2021/09/19 02:48:01;;;;;;;20.35;14.30;;;;;;;25.42;45.30;100322.63;4412767;32;20500;-68
2021/09/19 02:50:27;;;;;;;20.33;13.68;;;;;;;25.62;45.02;100324.87;4413024;32;20037;-68
2021/09/19 02:52:53;;;;;;;18.65;12.70;;;;;;;25.57;45.08;100325.75;4413477;32;20046;-68
2021/09/19 02:55:20;;;;;;;17.67;12.75;;;;;;;25.46;45.20;100323.06;4414267;32;20147;-68
2021/09/19 02:57:46;;;;;;;17.40;12.18;;;;;;;25.51;45.21;100321.41;4412801;32;20415;-68
2021/09/19 03:00:16;;;;;;;20.05;12.32;;;;;;;25.59;44.99;100331.75;4411752;32;20092;-68
2021/09/19 03:02:42;;;;;;;19.37;12.70;;;;;;;25.77;44.68;100341.63;4412166;32;20036;-68
2021/09/19 03:05:09;;;;;;;18.25;12.60;;;;;;;25.65;44.86;100337.38;4414466;32;20160;-68
2021/09/19 03:07:35;;;;;;;20.83;12.98;;;;;;;25.51;44.86;100333.72;4411971;32;20042;-68
2021/09/19 03:10:00;;;;;;;21.25;12.90;;;;;;;25.54;44.95;100326.84;4412631;32;20068;-69
2021/09/19 03:12:26;;;;;;;21.00;12.13;;;;;;;25.49;44.98;100332.72;4412887;32;20149;-68
2021/09/19 03:14:52;;;;;;;18.77;12.85;;;;;;;25.63;44.57;100319.88;4408833;32;20179;-68
2021/09/19 03:17:17;;;;;;;17.27;11.95;;;;;;;25.54;44.52;100323.97;4413349;32;20065;-68
2021/09/19 03:19:43;;;;;;;18.90;12.07;;;;;;;25.60;44.60;100313.12;4411682;32;20089;-68
2021/09/19 03:22:08;;;;;;;19.23;12.93;;;;;;;25.56;44.69;100311.87;4411234;32;20030;-68
2021/09/19 03:24:34;;;;;;;17.50;12.27;;;;;;;25.59;44.60;100317.34;4412285;32;20452;-69
2021/09/19 03:27:00;;;;;;;21.23;12.85;;;;;;;25.53;44.77;100324.50;4413763;32;20423;-69
2021/09/19 03:29:26;;;;;;;21.35;13.05;;;;;;;25.65;44.62;100322.97;4413068;32;20026;-69
2021/09/19 03:31:51;;;;;;;20.15;12.88;;;;;;;25.57;44.74;100324.97;4407456;32;20042;-69
2021/09/19 03:34:18;;;;;;;17.58;12.10;;;;;;;25.68;44.51;100324.75;4412957;32;20075;-69
2021/09/19 03:36:44;;;;;;;16.75;12.25;;;;;;;25.62;44.84;100329.84;4414653;32;20471;-69
2021/09/19 03:39:10;;;;;;;16.55;12.40;;;;;;;25.56;44.82;100329.19;4412286;32;20130;-69
2021/09/19 03:41:35;;;;;;;24.27;12.48;;;;;;;25.48;44.93;100331.16;4411521;32;20105;-69
2021/09/19 03:44:04;;;;;;;17.27;12.65;;;;;;;25.51;45.03;100332.94;4411939;32;20095;-69
2021/09/19 03:46:30;;;;;;;23.05;13.48;;;;;;;25.47;45.08;100333.28;4411932;32;20168;-69
2021/09/19 03:48:56;;;;;;;20.45;11.90;;;;;;;25.41;45.12;100328.94;4412172;32;20084;-69
2021/09/19 03:51:22;;;;;;;18.62;12.43;;;;;;;25.30;45.13;100329.88;4411256;32;20376;-69
2021/09/19 03:53:48;;;;;;;19.67;12.98;;;;;;;25.27;45.23;100326.00;4407841;32;20089;-69
2021/09/19 03:56:14;;;;;;;18.87;12.00;;;;;;;25.07;45.66;100334.47;4411242;32;20026;-69
2021/09/19 03:58:40;;;;;;;18.12;12.27;;;;;;;25.38;45.05;100322.19;4410981;32;20081;-69
2021/09/19 04:01:06;;;;;;;19.02;12.10;;;;;;;25.22;45.28;100329.75;4409963;32;20186;-69
2021/09/19 04:03:32;;;;;;;18.35;12.18;;;;;;;25.23;45.33;100333.41;4410150;32;20457;-69
2021/09/19 04:05:58;;;;;;;16.95;11.27;;;;;;;25.15;45.63;100323.84;4410724;32;20049;-69
2021/09/19 04:08:23;;;;;;;19.98;12.85;;;;;;;25.18;45.46;100331.41;4413889;32;20087;-69
2021/09/19 04:10:50;;;;;;;18.95;12.23;;;;;;;25.16;45.35;100337.69;4411017;32;20092;-69
2021/09/19 04:13:16;;;;;;;18.05;12.15;;;;;;;25.14;45.44;100343.25;4411069;32;20078;-69
2021/09/19 04:15:42;;;;;;;17.25;11.93;;;;;;;24.95;45.80;100341.75;4414132;32;20115;-69
2021/09/19 04:18:08;;;;;;;18.73;12.15;;;;;;;24.81;46.14;100338.03;4412139;32;20423;-69
2021/09/19 04:20:34;;;;;;;20.30;12.27;;;;;;;24.96;45.73;100341.19;4410010;32;20090;-69
2021/09/19 04:23:00;;;;;;;19.80;12.20;;;;;;;25.01;45.66;100333.78;4410514;32;20091;-69
2021/09/19 04:25:26;;;;;;;18.98;12.55;;;;;;;24.98;45.71;100338.53;4409696;32;20215;-69
2021/09/19 04:27:52;;;;;;;18.45;12.70;;;;;;;24.90;45.82;100340.50;4412138;32;20411;-69
2021/09/19 04:30:17;;;;;;;22.92;13.90;;;;;;;25.09;45.54;100341.22;4412447;32;20030;-69
2021/09/19 04:32:44;;;;;;;18.00;12.80;;;;;;;25.03;45.53;100336.88;4412556;32;20459;-69
2021/09/19 04:35:10;;;;;;;18.75;12.32;;;;;;;25.10;45.56;100334.12;4410160;32;20115;-69
2021/09/19 04:37:36;;;;;;;22.60;13.25;;;;;;;25.09;45.59;100344.12;4408203;32;20045;-69
2021/09/19 04:40:04;;;;;;;18.73;12.88;;;;;;;25.04;45.48;100336.34;4412962;32;20038;-69
2021/09/19 04:42:29;;;;;;;18.02;11.32;;;;;;;25.17;45.53;100341.38;4409161;32;20082;-69
2021/09/19 04:44:56;;;;;;;20.33;13.05;;;;;;;24.97;45.68;100351.38;4408608;32;20033;-69
2021/09/19 04:47:21;;;;;;;16.62;12.05;;;;;;;24.87;45.62;100343.69;4410434;32;20122;-69
2021/09/19 04:49:47;;;;;;;16.52;11.95;;;;;;;24.89;45.91;100344.72;4411697;32;20052;-69
2021/09/19 04:52:13;;;;;;;27.25;12.60;;;;;;;24.96;45.82;100346.16;4410384;32;20054;-69
2021/09/19 04:54:39;;;;;;;18.87;12.57;;;;;;;24.86;45.92;100354.44;4405343;32;20076;-69
2021/09/19 04:57:05;;;;;;;19.60;11.68;;;;;;;24.94;46.06;100352.47;4411777;32;20047;-69
2021/09/19 04:59:31;;;;;;;19.85;12.35;;;;;;;25.04;45.79;100355.72;4409134;32;20351;-69
2021/09/19 05:01:56;;;;;;;20.80;11.85;;;;;;;25.00;45.75;100353.16;4410995;32;20045;-69
2021/09/19 05:04:22;;;;;;;24.95;14.30;;;;;;;25.17;45.42;100359.44;4410266;32;20034;-69
2021/09/19 05:06:48;;;;;;;18.55;12.30;;;;;;;25.17;45.60;100355.78;4409780;32;20507;-69
2021/09/19 05:09:13;;;;;;;18.55;12.60;;;;;;;25.28;45.37;100364.22;4410027;32;20071;-69
2021/09/19 05:11:39;;;;;;;19.98;13.20;;;;;;;25.37;45.32;100365.94;4410093;32;20077;-69
2021/09/19 05:14:05;;;;;;;22.70;14.25;;;;;;;25.47;45.00;100362.09;4411279;32;20055;-69
2021/09/19 05:16:31;;;;;;;21.75;13.52;;;;;;;25.61;44.68;100357.88;4411552;32;20389;-69
2021/09/19 05:18:57;;;;;;;24.63;13.93;;;;;;;25.59;44.63;100354.00;4410628;32;20080;-69
2021/09/19 05:21:23;;;;;;;22.48;14.30;;;;;;;25.62;44.58;100358.66;4410149;32;20014;-69
2021/09/19 05:23:49;;;;;;;22.20;13.35;;;;;;;25.66;44.55;100350.47;4412516;32;20469;-69
2021/09/19 05:26:15;;;;;;;21.02;13.23;;;;;;;25.62;44.51;100347.94;4412175;32;21135;-69
2021/09/19 05:28:41;;;;;;;19.40;13.27;;;;;;;25.61;44.48;100355.00;4409739;32;20133;-69
2021/09/19 05:31:09;;;;;;;27.73;14.82;;;;;;;25.63;44.66;100360.22;4409802;32;20093;-69
2021/09/19 05:33:37;;;;;;;23.58;15.27;;;;;;;25.63;44.67;100352.34;4410562;32;20081;-69
2021/09/19 05:36:03;;;;;;;21.12;14.80;;;;;;;25.55;44.92;100354.31;4413608;32;20049;-69
2021/09/19 05:38:29;;;;;;;29.52;15.95;;;;;;;25.63;44.84;100358.13;4412205;32;20114;-69
2021/09/19 05:40:54;;;;;;;25.00;16.37;;;;;;;25.67;44.89;100361.44;4409756;32;20030;-69
2021/09/19 05:43:20;;;;;;;22.10;15.95;;;;;;;25.73;44.89;100355.56;4412248;32;20097;-69
2021/09/19 05:45:46;;;;;;;24.83;14.95;;;;;;;25.87;44.77;100369.44;4414464;32;20062;-69
2021/09/19 05:48:11;;;;;;;25.60;16.20;;;;;;;25.99;44.54;100381.56;4410355;32;20042;-69
2021/09/19 05:50:37;;;;;;;22.13;15.13;;;;;;;26.08;44.43;100372.47;4412850;32;20026;-69
2021/09/19 05:53:03;;;;;;;25.02;17.12;;;;;;;26.04;44.29;100387.22;4412186;32;20662;-69
2021/09/19 05:55:28;;;;;;;22.17;14.38;;;;;;;25.70;45.10;100388.38;4414218;32;20033;-69
2021/09/19 05:57:54;;;;;;;20.85;14.10;;;;;;;25.65;45.26;100387.16;4412337;32;20214;-69
2021/09/19 06:00:20;;;;;;;17.92;14.02;;;;;;;25.75;44.83;100382.53;4412707;32;20397;-69
2021/09/19 06:02:46;;;;;;;18.10;13.95;;;;;;;25.70;45.07;100377.62;4413334;32;20140;-69
2021/09/19 06:05:12;;;;;;;18.27;12.88;;;;;;;25.63;45.04;100374.62;4413128;32;20371;-69
2021/09/19 06:07:38;;;;;;;18.23;13.43;;;;;;;25.76;44.88;100381.19;4412556;32;20442;-69
2021/09/19 06:10:07;;;;;;;13.65;10.60;;;;;;;25.71;44.80;100390.69;4408262;32;20042;-69
2021/09/19 06:12:34;;;;;;;14.80;8.80;;;;;;;25.69;44.60;100386.81;4411830;32;20105;-69
2021/09/19 06:14:59;;;;;;;9.82;5.45;;;;;;;25.62;44.46;100393.25;4413687;32;20094;-69
2021/09/19 06:17:28;;;;;;;6.70;5.20;;;;;;;25.25;44.37;100399.91;4410782;32;20038;-68
2021/09/19 06:19:53;;;;;;;7.25;3.90;;;;;;;25.40;43.58;100414.56;4411657;32;20149;-68
2021/09/19 06:22:19;;;;;;;5.22;3.53;;;;;;;25.33;43.89;100421.78;4413378;32;20104;-69
2021/09/19 06:24:44;;;;;;;6.28;3.08;;;;;;;25.12;44.27;100420.78;4413265;32;20057;-69
2021/09/19 06:27:13;;;;;;;5.72;3.22;;;;;;;24.86;44.52;100432.16;4410992;32;20138;-69
2021/09/19 06:29:40;;;;;;;7.05;3.12;;;;;;;24.84;44.57;100439.78;4412393;32;20060;-69
2021/09/19 06:32:08;;;;;;;7.65;3.90;;;;;;;24.79;44.57;100444.28;4412977;32;20156;-69
2021/09/19 06:34:35;;;;;;;6.15;3.65;;;;;;;24.62;44.56;100445.81;4411920;32;20131;-69
2021/09/19 06:37:01;;;;;;;6.35;3.47;;;;;;;24.96;43.94;100441.97;4413024;32;20042;-69
2021/09/19 06:39:27;;;;;;;5.87;3.20;;;;;;;24.92;43.90;100446.47;4412028;32;20083;-68
2021/09/19 06:41:53;;;;;;;4.12;3.10;;;;;;;25.04;43.77;100436.34;4411436;32;20025;-68
2021/09/19 06:44:18;;;;;;;8.02;3.10;;;;;;;25.18;43.47;100449.47;4413156;32;20022;-68
2021/09/19 06:46:45;;;;;;;7.35;2.50;;;;;;;25.35;42.40;100450.03;4412259;32;20062;-68
2021/09/19 06:49:10;;;;;;;4.70;2.78;;;;;;;25.21;42.24;100446.28;4413075;32;20103;-68
2021/09/19 06:51:36;;;;;;;2.58;1.87;;;;;;;25.23;42.37;100445.75;4412489;32;20077;-68
2021/09/19 06:54:02;;;;;;;3.90;1.77;;;;;;;25.18;42.26;100444.50;4409365;32;20528;-68
2021/09/19 06:56:28;;;;;;;2.83;2.12;;;;;;;25.42;41.64;100455.16;4411841;32;20394;-68
2021/09/19 06:58:53;;;;;;;2.80;2.10;;;;;;;25.63;41.12;100456.09;4410892;32;20057;-68
2021/09/19 07:01:21;;;;;;;6.20;2.00;;;;;;;25.73;41.20;100454.34;4412521;32;20014;-68
2021/09/19 07:03:49;;;;;;;3.67;2.10;;;;;;;25.97;40.68;100454.19;4411983;32;20407;-68
2021/09/19 07:06:15;;;;;;;4.00;1.60;;;;;;;26.01;40.25;100465.44;4411474;32;20115;-68
2021/09/19 07:08:40;;;;;;;3.10;1.80;;;;;;;26.34;39.65;100465.56;4412077;32;20076;-68
2021/09/19 07:11:06;;;;;;;6.57;1.77;;;;;;;26.52;39.18;100466.75;4412511;32;20120;-68
2021/09/19 07:13:32;;;;;;;5.05;1.50;;;;;;;26.72;38.68;100466.12;4410904;32;20057;-68
2021/09/19 07:15:58;;;;;;;5.62;1.77;;;;;;;26.82;38.26;100475.84;4410850;32;20058;-68
2021/09/19 07:18:23;;;;;;;3.87;1.80;;;;;;;26.81;38.02;100465.62;4411254;32;20069;-68
2021/09/19 07:20:52;;;;;;;5.25;1.33;;;;;;;26.88;38.15;100476.53;4411563;32;20068;-68
2021/09/19 07:23:19;;;;;;;3.00;1.27;;;;;;;26.91;37.90;100473.28;4412694;32;20045;-68
2021/09/19 07:25:45;;;;;;;3.55;1.70;;;;;;;26.65;38.31;100476.22;4411931;32;20431;-68
2021/09/19 07:28:13;;;;;;;3.53;1.58;;;;;;;26.90;37.99;100482.50;4412997;32;20067;-68
2021/09/19 07:30:40;;;;;;;4.45;1.70;;;;;;;26.88;37.94;100477.28;4410759;32;20038;-68
2021/09/19 07:33:05;;;;;;;5.20;1.67;;;;;;;26.89;37.70;100480.94;4414817;32;20097;-68
2021/09/19 07:35:31;;;;;;;3.37;1.30;;;;;;;26.78;38.13;100475.41;4412094;32;21047;-68
2021/09/19 07:37:58;;;;;;;4.65;1.58;;;;;;;26.56;38.40;100482.41;4412035;32;20085;-68
2021/09/19 07:40:24;;;;;;;4.70;1.92;;;;;;;27.02;37.91;100478.81;4412047;32;20465;-68
2021/09/19 07:42:51;;;;;;;8.27;2.00;;;;;;;26.96;37.80;100474.47;4411453;32;20105;-68
2021/09/19 07:45:17;;;;;;;4.47;1.98;;;;;;;27.14;37.40;100479.31;4410969;32;20126;-68
2021/09/19 07:47:43;;;;;;;7.32;1.60;;;;;;;27.19;37.69;100484.22;4410362;32;20076;-68
2021/09/19 07:50:11;;;;;;;3.30;2.08;;;;;;;27.20;37.47;100482.88;4409924;32;20081;-68
2021/09/19 07:52:36;;;;;;;3.37;1.80;;;;;;;27.29;37.41;100485.31;4410323;32;20097;-68
2021/09/19 07:55:05;;;;;;;2.22;1.42;;;;;;;27.12;37.40;100487.78;4411707;32;20050;-68
2021/09/19 07:57:31;;;;;;;3.58;1.60;;;;;;;27.28;37.09;100478.00;4412348;32;20083;-68
2021/09/19 07:59:57;;;;;;;5.82;1.60;;;;;;;27.45;37.20;100481.25;4410567;32;20120;-68
2021/09/19 08:02:23;;;;;;;2.85;1.65;;;;;;;27.45;36.80;100474.69;4411126;32;20038;-68
2021/09/19 08:04:50;;;;;;;4.40;1.58;;;;;;;27.60;36.72;100469.84;4412728;32;20034;-68
2021/09/19 08:07:17;;;;;;;3.78;1.60;;;;;;;27.74;36.53;100477.09;4406688;32;20026;-68
2021/09/19 08:09:43;;;;;;;6.60;1.60;;;;;;;27.81;36.14;100479.28;4409161;32;20069;-68
2021/09/19 08:12:09;;;;;;;4.60;1.40;;;;;;;27.96;35.92;100482.34;4409281;32;20114;-68
2021/09/19 08:14:35;;;;;;;5.75;1.60;;;;;;;28.08;35.79;100483.59;4408849;32;20041;-68
2021/09/19 08:17:01;;;;;;;3.50;1.55;;;;;;;28.20;35.30;100486.97;4411347;32;20069;-68
2021/09/19 08:19:27;;;;;;;4.57;1.67;;;;;;;28.30;34.86;100494.56;4409979;32;20426;-68
2021/09/19 08:21:54;;;;;;;2.30;1.37;;;;;;;28.55;34.63;100492.03;4410208;32;20086;-68
2021/09/19 08:24:19;;;;;;;4.05;1.58;;;;;;;28.77;33.88;100492.16;4409487;32;20062;-68
2021/09/19 08:26:45;;;;;;;5.37;1.67;;;;;;;28.76;34.16;100499.31;4412525;32;20096;-68
2021/09/19 08:29:12;;;;;;;5.40;1.60;;;;;;;28.85;33.98;100503.78;4410012;32;20470;-68
2021/09/19 08:31:39;;;;;;;5.93;1.70;;;;;;;28.90;33.78;100506.50;4410285;32;20060;-69
2021/09/19 08:34:06;;;;;;;4.15;1.40;;;;;;;29.11;33.40;100517.28;4409651;32;20117;-68
2021/09/19 08:36:32;;;;;;;4.82;1.98;;;;;;;29.15;33.48;100515.56;4413407;32;20018;-68
2021/09/19 08:38:57;;;;;;;4.93;1.95;;;;;;;29.08;33.72;100516.28;4412634;32;20053;-68
2021/09/19 08:41:23;;;;;;;6.00;1.48;;;;;;;29.46;33.28;100517.19;4409814;32;20079;-68
2021/09/19 08:43:50;;;;;;;3.83;1.33;;;;;;;29.47;32.99;100515.84;4411529;32;20097;-68
2021/09/19 08:46:19;;;;;;;3.40;1.30;;;;;;;29.69;32.25;100526.75;4412034;32;20103;-68
2021/09/19 08:48:45;;;;;;;4.03;1.42;;;;;;;29.40;32.81;100516.59;4409736;32;20022;-68
2021/09/19 08:51:11;;;;;;;3.83;1.40;;;;;;;29.50;32.47;100522.59;4409619;32;20064;-68
2021/09/19 08:53:38;;;;;;;2.95;1.37;;;;;;;29.22;33.05;100519.81;4411125;32;20144;-68
2021/09/19 08:56:04;;;;;;;2.53;1.20;;;;;;;29.08;33.24;100524.22;4413160;32;20589;-68
2021/09/19 08:58:34;;;;;;;8.07;1.40;;;;;;;29.28;32.94;100524.09;4410448;32;20139;-68
2021/09/19 09:01:01;;;;;;;4.40;1.17;;;;;;;29.27;33.12;100524.66;4409555;32;20093;-68
2021/09/19 09:03:29;;;;;;;4.18;1.00;;;;;;;28.91;33.21;100525.47;4410249;32;20034;-68
2021/09/19 09:05:57;;;;;;;3.15;1.00;;;;;;;28.43;35.21;100532.09;4411706;32;20070;-68
2021/09/19 09:08:24;;;;;;;3.92;0.85;;;;;;;28.17;35.30;100537.28;4411940;32;21389;-68
2021/09/19 09:10:52;;;;;;;3.40;1.08;;;;;;;27.65;36.40;100544.09;4412553;32;20031;-68
2021/09/19 09:13:20;;;;;;;5.22;1.67;;;;;;;27.40;37.61;100542.88;4413376;32;20095;-68
2021/09/19 09:15:50;;;;;;;5.47;1.70;;;;;;;26.77;39.23;100548.94;4414948;32;20490;-68
2021/09/19 09:18:33;;;;;;;6.80;1.80;;;;;;;26.30;40.38;100550.88;4411354;32;20095;-67
2021/09/19 09:31:43;;;;;;;9.98;4.45;;;;;;;24.90;45.08;100573.69;3979096;32;15025461;-68
2021/09/19 09:34:13;;;;;;;11.65;5.90;;;;;;;24.90;45.08;100573.69;4435452;32;20095;-67
2021/09/19 09:44:48;;;;;;;6.40;3.58;;;;;;;25.03;43.65;100562.25;3994838;31;15016140;-69
2021/09/19 09:47:19;;;;;;;6.87;3.78;;;;;;;25.03;43.65;100562.25;4448289;32;20067;-68
2021/09/19 09:55:08;;;;;;;7.70;3.00;;;;;;;25.79;43.13;100556.94;3980959;32;15024535;-68
2021/09/19 10:00:21;;;;;;;4.90;2.53;;;;;;;26.21;42.18;100571.50;3983339;32;15034199;-68
2021/09/19 10:02:49;;;;;;;8.07;2.60;;;;;;;26.21;42.18;100571.50;4435029;32;20103;-68
2021/09/19 10:05:17;;;;;;;7.20;3.12;;;;;;;26.14;42.63;100563.50;4437072;32;20089;-68
2021/09/19 10:07:44;;;;;;;5.18;2.12;;;;;;;26.62;43.01;100568.91;4434675;32;20073;-68
2021/09/19 10:10:14;;;;;;;5.03;2.65;;;;;;;26.89;40.40;100553.16;4435597;32;20153;-68
2021/09/19 10:12:42;;;;;;;2.65;1.20;;;;;;;27.10;41.12;100554.00;4437547;32;20072;-66
2021/09/19 10:15:09;;;;;;;4.40;1.62;;;;;;;27.08;38.92;100562.44;4435505;32;20063;-67
2021/09/19 10:17:35;;;;;;;1.73;1.00;;;;;;;26.87;40.06;100558.69;4439075;32;20037;-67
2021/09/19 10:20:04;;;;;;;2.72;1.37;;;;;;;26.87;38.90;100555.81;4433462;32;20086;-68
2021/09/19 10:25:06;;;;;;;3.17;1.48;;;;;;;27.59;38.36;100571.56;3980101;32;15023198;-68
2021/09/19 10:27:34;;;;;;;2.72;1.10;;;;;;;27.59;38.36;100571.56;4437705;32;20425;-69
2021/09/19 10:30:04;;;;;;;2.83;1.23;;;;;;;27.72;37.85;100572.31;4434506;32;20111;-68
2021/09/19 10:38:04;;;;;;;4.75;1.35;;;;;;;30.03;35.31;100584.44;3998498;31;15017439;-67
2021/09/19 10:43:25;;;;;;;2.17;1.30;;;;;;;30.24;34.00;100593.75;3980589;32;15025275;-67
2021/09/19 10:45:52;;;;;;;6.15;1.42;;;;;;;30.24;34.00;100593.75;4436361;32;20101;-67
2021/09/19 10:48:27;;;;;;;4.45;1.70;;;;;;;29.79;34.99;100577.03;4438266;32;20081;-67
2021/09/19 10:51:08;;;;;;;2.97;1.45;;;;;;;30.18;35.35;100593.16;4435639;32;20355;-67
2021/09/19 10:53:49;;;;;;;3.35;1.25;;;;;;;30.27;35.34;100586.78;4437077;32;20754;-67
2021/09/19 10:56:15;;;;;;;3.40;1.33;;;;;;;30.50;33.82;100588.34;4433423;32;20462;-67
2021/09/19 10:58:47;;;;;;;2.87;1.48;;;;;;;30.43;35.43;100594.94;4433740;32;20077;-67
2021/09/19 11:01:17;;;;;;;4.55;1.65;;;;;;;31.18;33.34;100593.28;4435552;32;20089;-67
2021/09/19 11:04:07;;;;;;;4.22;1.37;;;;;;;31.47;32.51;100594.56;4434510;32;20099;-69
2021/09/19 11:06:36;;;;;;;2.95;1.35;;;;;;;31.71;32.74;100593.84;4435360;32;20096;-69
2021/09/19 11:09:24;;;;;;;2.95;1.25;;;;;;;31.66;31.97;100600.69;4432500;32;20087;-68
2021/09/19 11:15:03;;;;;;;5.15;1.67;;;;;;;32.67;30.86;100601.75;3996221;31;15014276;-68
2021/09/19 11:17:33;;;;;;;3.35;1.52;;;;;;;32.67;30.86;100601.75;4447106;32;20076;-68
2021/09/19 11:25:26;;;;;;;1.70;0.93;;;;;;;33.21;28.30;100589.72;3997771;31;15016374;-68
2021/09/19 11:27:53;;;;;;;4.90;1.45;;;;;;;33.21;28.30;100589.72;4453929;32;20067;-68
2021/09/19 11:30:21;;;;;;;2.87;1.20;;;;;;;32.89;29.32;100583.28;4453987;32;20067;-71
2021/09/19 11:32:47;;;;;;;3.65;1.17;;;;;;;32.99;29.06;100582.00;4454947;32;20067;-69
2021/09/19 11:35:13;;;;;;;1.40;0.80;;;;;;;33.24;28.90;100587.72;4452400;32;20114;-69
2021/09/19 11:37:39;;;;;;;1.98;1.08;;;;;;;33.34;28.13;100582.75;4453654;32;20076;-69
2021/09/19 11:40:20;;;;;;;5.85;1.27;;;;;;;33.40;28.49;100592.03;4452373;32;20108;-69
2021/09/19 11:42:46;;;;;;;4.00;1.17;;;;;;;33.86;28.55;100590.81;4453484;32;20037;-69
2021/09/19 11:45:12;;;;;;;2.33;0.88;;;;;;;33.98;27.78;100599.81;4453727;32;20436;-69
2021/09/19 11:47:39;;;;;;;2.92;1.20;;;;;;;34.12;26.97;100583.44;4453858;32;20056;-68
2021/09/19 11:50:06;;;;;;;3.42;1.40;;;;;;;33.86;27.22;100584.19;4453364;32;20335;-69
2021/09/19 11:52:32;;;;;;;2.80;1.02;;;;;;;33.81;27.30;100585.25;4453653;32;20080;-69
2021/09/19 11:54:58;;;;;;;2.55;1.25;;;;;;;34.66;27.25;100587.78;4453260;32;20060;-69
2021/09/19 11:57:24;;;;;;;2.72;1.12;;;;;;;35.28;25.89;100589.72;4427990;32;20041;-69
2021/09/19 11:59:50;;;;;;;3.65;0.88;;;;;;;35.63;25.68;100590.19;4452871;32;20517;-68
2021/09/19 12:02:17;;;;;;;3.08;1.33;;;;;;;36.35;24.50;100594.81;4453884;32;20047;-68
2021/09/19 12:04:44;;;;;;;2.95;1.00;;;;;;;37.40;24.79;100598.59;4453748;32;20103;-69
2021/09/19 12:07:12;;;;;;;3.08;1.02;;;;;;;37.93;22.48;100600.75;4452373;32;20087;-69
2021/09/19 12:09:43;;;;;;;2.15;0.90;;;;;;;37.95;21.65;100605.97;4454269;32;20088;-69
2021/09/19 12:12:14;;;;;;;4.18;1.00;;;;;;;38.32;21.25;100601.06;4453841;32;20123;-69
2021/09/19 12:14:46;;;;;;;3.12;0.82;;;;;;;38.73;20.94;100608.12;4451973;32;20096;-68
2021/09/19 12:17:12;;;;;;;5.62;1.00;;;;;;;39.32;20.56;100607.34;4453055;32;20089;-69
2021/09/19 12:19:41;;;;;;;1.85;0.80;;;;;;;39.26;21.00;100607.00;4453622;32;20418;-69